Time;durP1;ratioP1;P1;durP2;ratioP2;P2;SDS_P1;SDS_P2;PMS_P1;PMS_P2;Temp;Humidity;BMP_temperature;BMP_pressure;BME280_temperature;BME280_humidity;BME280_pressure;Samples;Min_cycle;Max_cycle;Signal;HPM_P1;HPM_P2
2021/07/08 00:01:54;;;;;;;1.40;1.30;;;26.40;82.10;;;;;;6158461;23;20447;-94
2021/07/08 00:04:25;;;;;;;1.50;1.40;;;26.40;82.10;;;;;;6158821;23;20520;-94
2021/07/08 00:06:52;;;;;;;1.40;1.30;;;26.40;82.10;;;;;;6159313;23;20407;-95
2021/07/08 00:09:20;;;;;;;1.50;1.40;;;26.40;82.10;;;;;;6159110;23;20477;-94
2021/07/08 00:11:50;;;;;;;1.40;1.30;;;26.40;82.10;;;;;;6157966;23;20411;-94
2021/07/08 00:14:20;;;;;;;1.60;1.50;;;26.40;82.10;;;;;;6158751;23;20418;-94
2021/07/08 00:16:47;;;;;;;1.20;1.10;;;26.40;82.10;;;;;;6158519;23;20739;-94
2021/07/08 00:19:14;;;;;;;1.30;1.20;;;26.20;81.90;;;;;;6157954;23;20407;-94
2021/07/08 00:21:43;;;;;;;1.67;1.57;;;26.40;82.10;;;;;;6158111;23;20414;-94
2021/07/08 00:24:10;;;;;;;1.70;1.60;;;26.40;82.30;;;;;;6145844;23;20412;-94
2021/07/08 00:26:39;;;;;;;1.50;1.40;;;26.40;82.10;;;;;;6157893;23;20411;-93
2021/07/08 00:29:06;;;;;;;1.77;1.67;;;26.40;82.10;;;;;;6158557;23;20949;-93
2021/07/08 00:31:36;;;;;;;1.40;1.30;;;26.40;82.10;;;;;;6157932;23;20411;-94
2021/07/08 00:34:05;;;;;;;3.37;1.53;;;26.40;82.10;;;;;;6159215;23;20416;-93
2021/07/08 00:36:32;;;;;;;1.37;1.27;;;26.40;82.00;;;;;;6158473;23;20420;-93
2021/07/08 00:39:05;;;;;;;1.60;1.50;;;26.40;82.10;;;;;;6157589;23;20419;-94
2021/07/08 00:41:37;;;;;;;1.60;1.50;;;26.40;82.10;;;;;;6158972;23;20721;-94
2021/07/08 00:44:05;;;;;;;1.60;1.50;;;26.40;82.00;;;;;;6157863;23;20410;-94
2021/07/08 00:46:32;;;;;;;1.50;1.30;;;26.40;82.10;;;;;;6157908;23;20470;-94
2021/07/08 00:48:59;;;;;;;1.20;1.10;;;26.40;82.00;;;;;;6158150;23;20416;-93
2021/07/08 00:51:30;;;;;;;2.00;1.67;;;26.40;82.00;;;;;;6158525;23;20412;-94
2021/07/08 00:54:01;;;;;;;1.57;1.47;;;26.40;82.10;;;;;;6157726;23;20414;-94
2021/07/08 00:56:38;;;;;;;1.37;1.27;;;26.40;82.00;;;;;;6157941;23;20915;-92
2021/07/08 00:59:09;;;;;;;1.57;1.47;;;26.40;82.00;;;;;;6158109;23;20482;-93
2021/07/08 01:01:42;;;;;;;1.33;1.23;;;26.40;82.00;;;;;;6157793;23;20461;-94
2021/07/08 01:04:12;;;;;;;1.40;1.30;;;26.40;82.00;;;;;;6158496;23;20413;-94
2021/07/08 01:06:44;;;;;;;1.47;1.33;;;26.40;82.00;;;;;;6158839;23;20407;-94
2021/07/08 01:09:18;;;;;;;1.40;1.30;;;26.40;82.00;;;;;;6157931;23;20388;-94
2021/07/08 01:11:49;;;;;;;1.60;1.50;;;26.40;81.90;;;;;;6157837;23;20494;-94
2021/07/08 01:14:18;;;;;;;1.53;1.43;;;26.40;81.90;;;;;;6158290;23;20390;-93
2021/07/08 01:16:45;;;;;;;1.43;1.30;;;26.40;81.90;;;;;;6131718;23;20484;-93
2021/07/08 01:19:12;;;;;;;1.40;1.30;;;26.40;81.90;;;;;;6157891;23;20435;-93
2021/07/08 01:21:41;;;;;;;1.87;1.77;;;26.40;81.90;;;;;;6157580;23;20871;-94
2021/07/08 01:24:08;;;;;;;1.60;1.50;;;26.40;81.90;;;;;;6145274;23;20461;-94
2021/07/08 01:26:41;;;;;;;1.63;1.50;;;26.40;81.90;;;;;;6157898;23;20799;-94
2021/07/08 01:29:11;;;;;;;1.63;1.53;;;26.40;81.80;;;;;;6158243;23;20824;-93
2021/07/08 01:31:38;;;;;;;1.30;1.20;;;26.40;81.80;;;;;;6157485;23;20404;-94
2021/07/08 01:34:05;;;;;;;1.83;1.43;;;26.40;81.80;;;;;;6157786;23;20415;-93
2021/07/08 01:36:38;;;;;;;1.60;1.50;;;26.40;81.80;;;;;;6157372;23;20454;-93
2021/07/08 01:39:07;;;;;;;1.40;1.30;;;26.40;81.80;;;;;;6157961;23;20380;-94
2021/07/08 01:41:34;;;;;;;1.50;1.40;;;26.40;81.70;;;;;;6157428;23;20435;-94
2021/07/08 01:44:04;;;;;;;1.50;1.40;;;26.30;81.70;;;;;;6157492;23;20487;-93
2021/07/08 01:46:34;;;;;;;1.60;1.50;;;26.40;81.70;;;;;;6157051;23;20421;-93
2021/07/08 01:49:01;;;;;;;1.60;1.33;;;26.30;81.60;;;;;;6158750;23;20414;-94
2021/07/08 01:51:33;;;;;;;1.53;1.43;;;26.30;81.60;;;;;;6157530;23;20407;-94
2021/07/08 01:54:01;;;;;;;2.03;1.83;;;26.30;81.50;;;;;;6158511;23;20427;-94
2021/07/08 01:56:29;;;;;;;1.47;1.37;;;26.30;81.50;;;;;;6157023;23;20461;-94
2021/07/08 01:58:56;;;;;;;1.87;1.77;;;26.30;81.50;;;;;;6157024;23;20420;-93
2021/07/08 02:01:26;;;;;;;1.60;1.50;;;26.30;81.50;;;;;;6157550;23;20486;-93
2021/07/08 02:03:53;;;;;;;1.33;1.23;;;26.30;81.40;;;;;;6157421;23;20415;-94
2021/07/08 02:06:23;;;;;;;1.40;1.30;;;26.30;81.40;;;;;;6157397;23;20735;-93
2021/07/08 02:08:50;;;;;;;1.40;1.30;;;26.30;81.40;;;;;;6157811;23;20380;-93
2021/07/08 02:11:18;;;;;;;1.50;1.40;;;26.40;81.50;;;;;;6157526;23;20439;-94
2021/07/08 02:13:47;;;;;;;1.50;1.40;;;26.30;81.40;;;;;;6157372;23;20436;-94
2021/07/08 02:16:14;;;;;;;1.60;1.50;;;26.30;81.40;;;;;;6157458;23;20440;-93
2021/07/08 02:18:42;;;;;;;1.50;1.40;;;26.30;81.40;;;;;;6156996;23;20502;-94
2021/07/08 02:21:11;;;;;;;1.70;1.60;;;26.30;81.40;;;;;;6157206;23;20408;-93
2021/07/08 02:23:38;;;;;;;1.50;1.40;;;26.30;81.30;;;;;;6157229;23;20415;-93
2021/07/08 02:26:06;;;;;;;1.90;1.50;;;26.30;81.30;;;;;;6157338;23;20411;-93
2021/07/08 02:28:36;;;;;;;1.70;1.60;;;26.30;81.30;;;;;;6157211;23;20523;-94
2021/07/08 02:31:09;;;;;;;1.60;1.50;;;26.30;81.30;;;;;;6157057;23;20466;-94
2021/07/08 02:33:37;;;;;;;1.43;1.33;;;26.30;81.30;;;;;;6157241;23;20498;-94
2021/07/08 02:36:05;;;;;;;1.70;1.60;;;26.30;81.20;;;;;;6156933;23;20517;-93
2021/07/08 02:38:33;;;;;;;1.60;1.50;;;26.30;81.20;;;;;;6157114;23;20408;-94
2021/07/08 02:41:00;;;;;;;1.70;1.60;;;26.30;81.20;;;;;;6157622;23;20415;-94
2021/07/08 02:43:27;;;;;;;1.53;1.43;;;26.30;81.20;;;;;;6157862;23;20411;-96
2021/07/08 02:45:54;;;;;;;2.23;1.80;;;26.30;81.20;;;;;;6157316;23;20419;-94
2021/07/08 02:48:27;;;;;;;1.40;1.30;;;26.30;81.20;;;;;;6158236;23;20440;-92
2021/07/08 02:50:58;;;;;;;1.60;1.50;;;26.30;81.20;;;;;;6157580;23;20399;-94
2021/07/08 02:53:25;;;;;;;1.63;1.53;;;26.30;81.20;;;;;;6157123;23;20547;-94
2021/07/08 02:55:54;;;;;;;1.60;1.50;;;26.30;81.10;;;;;;6157991;23;20438;-93
2021/07/08 02:58:21;;;;;;;1.67;1.57;;;26.30;81.10;;;;;;6158093;23;20415;-93
2021/07/08 03:00:48;;;;;;;1.67;1.57;;;26.30;81.10;;;;;;6156852;23;20442;-94
2021/07/08 03:03:16;;;;;;;1.60;1.50;;;26.30;81.10;;;;;;6157763;23;20483;-93
2021/07/08 03:05:45;;;;;;;1.40;1.30;;;26.30;81.00;;;;;;6157568;23;20419;-94
2021/07/08 03:08:15;;;;;;;1.77;1.67;;;26.30;81.00;;;;;;6157424;23;20658;-93
2021/07/08 03:10:42;;;;;;;1.40;1.30;;;26.30;81.00;;;;;;6157193;23;20443;-96
2021/07/08 03:13:12;;;;;;;1.60;1.50;;;26.30;81.00;;;;;;6159329;23;20422;-95
2021/07/08 03:15:39;;;;;;;1.50;1.40;;;26.30;81.00;;;;;;6159062;23;20439;-95
2021/07/08 03:18:06;;;;;;;2.13;1.93;;;26.30;81.00;;;;;;6160109;23;20467;-94
2021/07/08 03:21:05;;;;;;;1.60;1.50;;;26.30;80.90;;;;;;6159206;23;20478;-93
2021/07/08 03:23:35;;;;;;;1.47;1.37;;;26.30;80.80;;;;;;6159225;23;20403;-93
2021/07/08 03:26:02;;;;;;;1.50;1.40;;;26.40;81.10;;;;;;6159286;23;20470;-93
2021/07/08 03:28:30;;;;;;;1.70;1.60;;;26.30;80.90;;;;;;6158698;23;20742;-94
2021/07/08 03:30:57;;;;;;;1.63;1.53;;;26.30;80.90;;;;;;6158720;23;20840;-94
2021/07/08 03:33:27;;;;;;;5.10;1.40;;;26.30;80.80;;;;;;6159504;23;20400;-94
2021/07/08 03:35:57;;;;;;;1.80;1.70;;;26.30;80.80;;;;;;6159487;23;20526;-94
2021/07/08 03:38:27;;;;;;;1.60;1.50;;;26.30;80.80;;;;;;6159496;23;20419;-93
2021/07/08 03:40:54;;;;;;;2.40;1.50;;;26.30;80.80;;;;;;6159802;23;20787;-94
2021/07/08 03:43:25;;;;;;;1.40;1.30;;;26.30;80.80;;;;;;6159061;23;20411;-93
2021/07/08 03:45:53;;;;;;;1.60;1.50;;;26.30;80.70;;;;;;6158861;23;20380;-94
2021/07/08 03:48:22;;;;;;;1.70;1.60;;;26.30;80.70;;;;;;6159156;23;20402;-93
2021/07/08 03:50:49;;;;;;;1.93;1.70;;;26.30;80.70;;;;;;6158856;23;20462;-95
2021/07/08 03:53:16;;;;;;;1.33;1.23;;;26.30;80.70;;;;;;6158727;23;20411;-94
2021/07/08 03:55:48;;;;;;;1.40;1.30;;;26.30;80.70;;;;;;6159289;23;20522;-94
2021/07/08 03:58:15;;;;;;;1.50;1.40;;;26.30;80.70;;;;;;6159414;23;20418;-93
2021/07/08 04:00:43;;;;;;;1.50;1.40;;;26.30;80.70;;;;;;6158165;23;20451;-93
2021/07/08 04:03:13;;;;;;;1.90;1.80;;;26.30;80.70;;;;;;6132565;23;20411;-95
2021/07/08 04:05:41;;;;;;;1.60;1.50;;;26.30;80.70;;;;;;6158175;23;20457;-94
2021/07/08 04:08:09;;;;;;;1.80;1.70;;;26.30;80.80;;;;;;6158360;23;20470;-93
2021/07/08 04:10:40;;;;;;;1.87;1.63;;;26.30;80.80;;;;;;6158828;23;20796;-93
2021/07/08 04:13:14;;;;;;;1.77;1.67;;;26.30;80.70;;;;;;6159104;23;20396;-93
2021/07/08 04:15:42;;;;;;;2.20;2.00;;;26.30;80.70;;;;;;6159118;23;21025;-94
2021/07/08 04:18:14;;;;;;;1.90;1.80;;;26.30;80.70;;;;;;6158563;23;20414;-94
2021/07/08 04:20:41;;;;;;;1.40;1.30;;;26.20;80.70;;;;;;6159561;23;20411;-94
2021/07/08 04:23:10;;;;;;;1.70;1.60;;;26.20;80.70;;;;;;6158640;23;20765;-94
2021/07/08 04:25:38;;;;;;;1.63;1.53;;;26.20;80.70;;;;;;6158562;23;20423;-93
2021/07/08 04:28:08;;;;;;;1.47;1.37;;;26.30;80.70;;;;;;6158975;23;20404;-93
2021/07/08 04:30:36;;;;;;;1.67;1.57;;;26.20;80.70;;;;;;6158480;23;20911;-94
2021/07/08 04:33:04;;;;;;;1.67;1.57;;;26.20;80.70;;;;;;6158518;23;20416;-94
2021/07/08 04:35:35;;;;;;;1.67;1.57;;;26.20;80.70;;;;;;6158057;23;20914;-93
2021/07/08 04:38:05;;;;;;;1.40;1.30;;;26.20;80.60;;;;;;6159166;23;20411;-93
2021/07/08 04:40:32;;;;;;;1.70;1.60;;;26.30;80.70;;;;;;6158436;23;20440;-93
2021/07/08 04:43:00;;;;;;;1.60;1.50;;;26.30;80.70;;;;;;6158844;23;20454;-94
2021/07/08 04:45:30;;;;;;;1.70;1.60;;;26.20;80.60;;;;;;6158021;23;20419;-93
2021/07/08 04:47:59;;;;;;;1.70;1.60;;;26.30;80.70;;;;;;6158756;23;20402;-94
2021/07/08 04:50:27;;;;;;;1.60;1.50;;;26.30;80.70;;;;;;6157851;23;20414;-93
2021/07/08 04:52:55;;;;;;;1.60;1.50;;;26.20;80.60;;;;;;6158091;23;20407;-94
2021/07/08 04:55:24;;;;;;;1.70;1.60;;;26.30;80.70;;;;;;6158961;23;20430;-94
2021/07/08 04:57:51;;;;;;;1.63;1.53;;;26.20;80.60;;;;;;6158430;23;20478;-93
2021/07/08 05:00:23;;;;;;;1.83;1.70;;;26.20;80.70;;;;;;6157989;23;20498;-93
2021/07/08 05:02:52;;;;;;;2.20;1.60;;;26.30;80.70;;;;;;6158739;23;20867;-95
2021/07/08 05:05:20;;;;;;;1.60;1.50;;;26.30;80.80;;;;;;6158831;23;20900;-96
2021/07/08 05:07:48;;;;;;;1.83;1.70;;;26.20;80.80;;;;;;6158682;23;20514;-96
2021/07/08 05:10:18;;;;;;;1.73;1.63;;;26.20;80.80;;;;;;6158523;23;20495;-93
2021/07/08 05:12:45;;;;;;;2.43;1.93;;;26.30;80.90;;;;;;6157983;23;20494;-93
2021/07/08 05:15:15;;;;;;;1.80;1.70;;;26.20;80.80;;;;;;6158667;23;20875;-93
2021/07/08 05:17:42;;;;;;;1.70;1.60;;;26.20;80.90;;;;;;6158109;23;20478;-93
2021/07/08 05:20:16;;;;;;;1.83;1.73;;;26.20;80.90;;;;;;6158981;23;20759;-96
2021/07/08 05:22:45;;;;;;;1.40;1.30;;;26.30;80.90;;;;;;6158338;23;20462;-93
2021/07/08 05:25:17;;;;;;;1.90;1.80;;;26.10;80.90;;;;;;6157892;23;20872;-93
2021/07/08 05:27:47;;;;;;;1.77;1.67;;;26.20;80.90;;;;;;6158753;23;20418;-93
2021/07/08 05:30:15;;;;;;;1.80;1.70;;;26.20;80.90;;;;;;6158429;23;20552;-94
2021/07/08 05:32:42;;;;;;;2.90;1.80;;;26.20;81.00;;;;;;6157897;23;20420;-94
2021/07/08 05:35:11;;;;;;;2.90;1.70;;;26.20;81.10;;;;;;6157470;23;20443;-93
2021/07/08 05:37:41;;;;;;;1.50;1.40;;;26.20;81.20;;;;;;6158743;23;20446;-94
2021/07/08 05:40:08;;;;;;;2.00;1.90;;;26.20;81.20;;;;;;6157339;23;20453;-93
2021/07/08 05:42:36;;;;;;;1.90;1.80;;;26.20;81.30;;;;;;6157691;23;20416;-94
2021/07/08 05:45:03;;;;;;;3.30;2.43;;;26.20;81.30;;;;;;6158604;23;20443;-93
2021/07/08 05:47:30;;;;;;;1.70;1.60;;;26.20;81.30;;;;;;6158070;23;20460;-92
2021/07/08 05:50:00;;;;;;;1.90;1.80;;;26.20;81.40;;;;;;6157960;23;20446;-94
2021/07/08 05:52:34;;;;;;;2.10;2.00;;;26.20;81.40;;;;;;6157662;23;20493;-93
2021/07/08 05:55:03;;;;;;;1.83;1.70;;;26.30;81.60;;;;;;6157835;23;20712;-93
2021/07/08 05:57:33;;;;;;;1.90;1.80;;;26.20;81.60;;;;;;6158003;23;20533;-93
2021/07/08 06:00:01;;;;;;;1.87;1.73;;;26.20;81.60;;;;;;6157013;23;20819;-94
2021/07/08 06:02:28;;;;;;;1.93;1.83;;;26.20;81.60;;;;;;6157644;23;20417;-93
2021/07/08 06:05:01;;;;;;;2.33;1.93;;;26.20;81.70;;;;;;6157681;23;20412;-94
2021/07/08 06:07:33;;;;;;;2.20;2.10;;;26.20;81.70;;;;;;6159011;23;20452;-93
2021/07/08 06:10:10;;;;;;;2.17;2.07;;;26.30;81.70;;;;;;6157905;23;20414;-94
2021/07/08 06:12:42;;;;;;;2.33;1.77;;;26.20;81.80;;;;;;6131758;23;20439;-94
2021/07/08 06:15:12;;;;;;;2.37;2.17;;;26.30;81.80;;;;;;6158054;23;20408;-93
2021/07/08 06:17:39;;;;;;;2.23;2.03;;;26.30;81.80;;;;;;6157676;23;20447;-93
2021/07/08 06:20:08;;;;;;;2.33;2.13;;;26.30;81.90;;;;;;6157331;23;20431;-93
2021/07/08 06:22:36;;;;;;;2.53;2.33;;;26.30;81.90;;;;;;6158090;23;20418;-93
2021/07/08 06:25:04;;;;;;;2.30;2.10;;;26.30;81.90;;;;;;6157023;23;20419;-95
2021/07/08 06:27:32;;;;;;;3.60;2.90;;;26.30;81.90;;;;;;6157932;23;20418;-93
2021/07/08 06:30:00;;;;;;;3.00;2.80;;;26.30;81.90;;;;;;6157696;23;20459;-93
2021/07/08 06:32:27;;;;;;;2.57;2.37;;;26.30;82.00;;;;;;6157818;23;20422;-94
2021/07/08 06:34:54;;;;;;;2.80;2.20;;;26.30;81.90;;;;;;6157594;23;20467;-92
2021/07/08 06:37:21;;;;;;;2.90;2.70;;;26.30;81.90;;;;;;6158054;23;20474;-93
2021/07/08 06:39:51;;;;;;;2.63;2.43;;;26.30;82.10;;;;;;6157186;23;20412;-93
2021/07/08 06:42:18;;;;;;;4.60;4.20;;;26.30;82.00;;;;;;6157289;23;20407;-93
2021/07/08 06:44:45;;;;;;;8.60;5.30;;;26.30;82.50;;;;;;6156316;23;20739;-94
2021/07/08 06:47:16;;;;;;;5.77;5.27;;;26.10;83.10;;;;;;6157964;23;20412;-91
2021/07/08 06:49:44;;;;;;;7.43;5.30;;;26.10;84.00;;;;;;6156675;23;20439;-93
2021/07/08 06:52:14;;;;;;;5.30;4.80;;;26.10;84.50;;;;;;6157387;23;20419;-95
2021/07/08 06:54:58;;;;;;;5.10;4.67;;;26.00;84.20;;;;;;6156776;23;20425;-93
2021/07/08 07:03:49;;;;;;;6.87;6.00;;;25.80;84.30;;;;;;6127305;23;20461;-94
2021/07/08 07:13:12;;;;;;;9.83;5.93;;;25.80;84.80;;;;;;6176733;23;20468;-92
2021/07/08 07:15:41;;;;;;;5.53;4.37;;;25.70;85.20;;;;;;6155396;23;20956;-92
2021/07/08 07:18:08;;;;;;;5.70;5.10;;;25.80;85.20;;;;;;6155220;23;20454;-91
2021/07/08 07:20:37;;;;;;;6.17;5.57;;;25.80;85.00;;;;;;6156116;23;20456;-91
2021/07/08 07:23:04;;;;;;;6.07;5.13;;;25.80;84.80;;;;;;6158306;23;20424;-92
2021/07/08 07:25:40;;;;;;;11.90;6.13;;;25.90;84.90;;;;;;6156165;23;20407;-91
2021/07/08 07:28:08;;;;;;;7.30;5.17;;;25.90;85.00;;;;;;6155605;23;20398;-91
2021/07/08 07:30:36;;;;;;;6.93;5.10;;;25.90;85.60;;;;;;6156262;23;20875;-91
2021/07/08 07:33:03;;;;;;;6.50;4.93;;;25.90;85.00;;;;;;6155894;23;20929;-91
2021/07/08 07:35:30;;;;;;;7.63;4.43;;;26.00;85.30;;;;;;6155983;23;20879;-92
2021/07/08 07:37:59;;;;;;;4.40;4.00;;;26.10;84.90;;;;;;6155984;23;20976;-91
2021/07/08 07:40:26;;;;;;;7.27;4.87;;;26.00;84.60;;;;;;6155881;23;20490;-91
2021/07/08 07:42:53;;;;;;;12.40;4.63;;;26.10;84.30;;;;;;6155206;23;20410;-91
2021/07/08 07:45:20;;;;;;;6.60;4.50;;;26.10;84.10;;;;;;6155250;23;20495;-91
2021/07/08 07:47:52;;;;;;;33.53;6.73;;;26.10;84.00;;;;;;6156598;23;20449;-91
2021/07/08 07:50:20;;;;;;;31.40;7.27;;;26.20;83.90;;;;;;6156917;23;20400;-90
2021/07/08 07:52:55;;;;;;;39.30;7.60;;;26.20;83.80;;;;;;6157116;23;20419;-94
2021/07/08 07:55:26;;;;;;;29.23;5.30;;;26.20;83.80;;;;;;6156223;23;20415;-91
2021/07/08 07:57:53;;;;;;;44.17;7.60;;;26.20;83.30;;;;;;6156769;23;20447;-93
2021/07/08 08:00:20;;;;;;;51.07;7.30;;;26.20;83.30;;;;;;6157487;23;20465;-91
2021/07/08 08:02:47;;;;;;;43.37;8.83;;;26.20;83.20;;;;;;6157926;23;20408;-92
2021/07/08 08:05:33;;;;;;;40.53;6.40;;;26.40;83.20;;;;;;6157882;23;20494;-91
2021/07/08 08:10:45;;;;;;;49.67;7.63;;;26.30;82.90;;;;;;6157933;23;20502;-91
2021/07/08 08:13:12;;;;;;;33.83;7.80;;;26.30;82.80;;;;;;6157542;23;20436;-91
2021/07/08 08:15:39;;;;;;;27.80;6.37;;;26.30;82.80;;;;;;6157629;23;20407;-91
2021/07/08 08:18:06;;;;;;;23.47;5.80;;;26.30;82.70;;;;;;6157346;23;20454;-92
2021/07/08 08:20:33;;;;;;;29.87;6.37;;;26.40;82.70;;;;;;6157604;23;20487;-90
2021/07/08 08:23:02;;;;;;;28.40;5.27;;;26.40;82.60;;;;;;6157804;23;20479;-91
2021/07/08 08:25:29;;;;;;;30.50;5.40;;;26.40;82.60;;;;;;6157496;23;20400;-92
2021/07/08 08:27:58;;;;;;;29.07;4.87;;;26.40;82.40;;;;;;6157857;23;20795;-92
2021/07/08 08:30:25;;;;;;;24.00;5.83;;;26.40;82.40;;;;;;6156765;23;20909;-90
2021/07/08 08:32:52;;;;;;;20.63;5.20;;;26.40;82.40;;;;;;6157919;23;20487;-93
2021/07/08 08:35:19;;;;;;;31.03;5.23;;;26.40;82.40;;;;;;6157803;23;20462;-94
2021/07/08 08:37:46;;;;;;;19.97;5.20;;;26.40;82.30;;;;;;6132250;23;20439;-94
2021/07/08 08:40:15;;;;;;;33.30;5.67;;;26.40;82.30;;;;;;6159092;23;20503;-94
2021/07/08 08:42:43;;;;;;;19.13;4.63;;;26.40;82.30;;;;;;6158814;23;20910;-94
2021/07/08 08:45:17;;;;;;;20.30;4.50;;;26.40;82.20;;;;;;6158918;23;20415;-94
2021/07/08 08:48:09;;;;;;;13.87;5.20;;;26.50;82.30;;;;;;6158589;23;20442;-94
2021/07/08 08:50:39;;;;;;;14.30;4.43;;;26.50;82.20;;;;;;6104985;23;20751;-94
2021/07/08 08:53:08;;;;;;;19.03;4.50;;;26.40;83.10;;;;;;6158625;23;20499;-94
2021/07/08 08:55:37;;;;;;;16.63;4.63;;;26.50;82.30;;;;;;6158263;23;20407;-94
2021/07/08 08:58:06;;;;;;;14.10;4.63;;;26.50;82.30;;;;;;6159446;23;20440;-94
2021/07/08 09:00:40;;;;;;;19.43;4.87;;;26.50;82.30;;;;;;6158558;23;20442;-93
2021/07/08 09:03:08;;;;;;;21.67;4.60;;;26.50;82.30;;;;;;6158240;23;20491;-93
2021/07/08 09:05:36;;;;;;;8.67;3.90;;;26.50;82.20;;;;;;6159262;23;20403;-94
2021/07/08 09:08:21;;;;;;;18.67;4.47;;;26.50;82.20;;;;;;6158368;23;20421;-94
2021/07/08 09:10:51;;;;;;;11.27;3.70;;;26.50;82.20;;;;;;6158472;23;20458;-94
2021/07/08 09:13:18;;;;;;;10.70;3.90;;;26.50;82.20;;;;;;6158194;23;20424;-94
2021/07/08 09:15:47;;;;;;;12.50;4.27;;;26.50;82.20;;;;;;6158255;23;20492;-94
2021/07/08 09:18:15;;;;;;;12.73;3.93;;;26.50;82.20;;;;;;6157633;23;20448;-94
2021/07/08 09:20:42;;;;;;;15.87;4.80;;;26.50;82.20;;;;;;6158556;23;20398;-95
2021/07/08 09:23:13;;;;;;;9.70;3.90;;;26.50;82.20;;;;;;6158286;23;20430;-94
2021/07/08 09:25:44;;;;;;;9.30;3.20;;;26.60;82.30;;;;;;6158413;23;20909;-94
2021/07/08 09:28:15;;;;;;;13.10;4.67;;;26.60;82.30;;;;;;6158665;23;20452;-94
2021/07/08 09:30:44;;;;;;;11.23;3.53;;;26.60;82.30;;;;;;6158114;23;20408;-94
2021/07/08 09:33:36;;;;;;;5.43;3.20;;;26.60;82.30;;;;;;6157359;23;20467;-94
2021/07/08 09:36:13;;;;;;;15.53;3.80;;;26.60;82.20;;;;;;6132618;23;20951;-94
2021/07/08 09:38:43;;;;;;;12.23;4.40;;;26.60;82.30;;;;;;6157768;23;20478;-94
2021/07/08 09:41:15;;;;;;;14.70;4.43;;;26.60;82.30;;;;;;6158553;23;20943;-94
2021/07/08 09:43:43;;;;;;;17.13;3.53;;;26.60;82.40;;;;;;6157461;23;20417;-94
2021/07/08 09:46:11;;;;;;;14.87;3.83;;;26.60;82.30;;;;;;6158832;23;20769;-94
2021/07/08 09:49:03;;;;;;;10.33;3.57;;;26.60;82.30;;;;;;6157899;23;20404;-95
2021/07/08 09:51:33;;;;;;;10.53;3.40;;;26.70;82.30;;;;;;6158307;23;20432;-95
2021/07/08 09:54:07;;;;;;;9.53;3.40;;;26.70;82.40;;;;;;6157433;23;20415;-96
2021/07/08 09:56:48;;;;;;;5.40;3.10;;;26.60;82.30;;;;;;6157300;23;20413;-95
2021/07/08 09:59:17;;;;;;;9.27;2.90;;;26.60;83.10;;;;;;6157661;23;20533;-96
2021/07/08 10:01:46;;;;;;;10.33;3.50;;;26.70;82.30;;;;;;6158225;23;20447;-95
2021/07/08 10:04:15;;;;;;;7.87;3.33;;;26.70;82.30;;;;;;6158094;23;20426;-96
2021/07/08 10:06:42;;;;;;;5.90;2.97;;;26.70;82.30;;;;;;6157207;23;20452;-95
2021/07/08 10:09:14;;;;;;;11.17;3.00;;;26.50;82.10;;;;;;6157777;23;20443;-95
2021/07/08 10:11:41;;;;;;;6.10;3.20;;;26.70;82.30;;;;;;6157208;23;20380;-95
2021/07/08 10:14:08;;;;;;;6.27;3.10;;;26.70;82.30;;;;;;6157381;23;20436;-95
2021/07/08 10:16:37;;;;;;;6.67;3.60;;;26.70;82.30;;;;;;6157044;23;20428;-96
2021/07/08 10:19:06;;;;;;;6.33;3.70;;;26.70;82.30;;;;;;6156849;23;20943;-96
2021/07/08 10:21:35;;;;;;;6.40;3.10;;;26.70;82.30;;;;;;6156859;23;20463;-95
2021/07/08 10:24:03;;;;;;;6.60;2.93;;;26.70;82.40;;;;;;6157123;23;20403;-96
2021/07/08 10:26:30;;;;;;;4.03;2.90;;;26.70;82.30;;;;;;6157000;23;20438;-95
2021/07/08 10:28:59;;;;;;;6.50;3.23;;;26.70;82.30;;;;;;6157100;23;20448;-96
2021/07/08 10:31:27;;;;;;;8.40;3.43;;;26.70;82.30;;;;;;6158195;23;20407;-95
2021/07/08 10:34:14;;;;;;;4.90;2.90;;;26.70;82.30;;;;;;6156502;23;20404;-95
2021/07/08 10:36:45;;;;;;;6.50;2.77;;;26.70;82.30;;;;;;6157215;23;20712;-95
2021/07/08 10:39:16;;;;;;;4.93;3.40;;;26.70;82.40;;;;;;6157470;23;20439;-95
2021/07/08 10:41:45;;;;;;;5.13;3.10;;;26.70;82.30;;;;;;6156510;23;20412;-95
2021/07/08 10:44:58;;;;;;;8.80;3.43;;;26.70;82.30;;;;;;6156860;23;20412;-95
2021/07/08 10:47:40;;;;;;;7.87;3.47;;;26.70;82.30;;;;;;6088059;23;20431;-94
2021/07/08 10:50:26;;;;;;;5.73;2.83;;;26.60;82.30;;;;;;6156775;23;20986;-95
2021/07/08 10:52:54;;;;;;;6.10;2.93;;;26.60;82.30;;;;;;6156086;23;20435;-95
2021/07/08 10:55:42;;;;;;;3.73;2.60;;;26.60;82.30;;;;;;6156732;23;20472;-94
2021/07/08 10:58:39;;;;;;;5.20;3.17;;;26.60;82.20;;;;;;6156626;23;20536;-95
2021/07/08 11:01:07;;;;;;;5.73;3.17;;;26.60;82.30;;;;;;6156286;23;20415;-94
2021/07/08 11:03:41;;;;;;;8.03;3.17;;;26.60;82.40;;;;;;6156410;23;20471;-95
2021/07/08 11:06:17;;;;;;;3.60;2.53;;;26.60;82.40;;;;;;6156609;23;20469;-94
2021/07/08 11:08:57;;;;;;;8.57;3.10;;;26.60;82.40;;;;;;6157016;23;20779;-95
2021/07/08 11:12:02;;;;;;;5.47;2.80;;;26.60;82.30;;;;;;6156631;23;20432;-94
2021/07/08 11:14:31;;;;;;;4.80;3.00;;;26.60;82.30;;;;;;6156149;23;20440;-94
2021/07/08 11:17:00;;;;;;;5.60;3.10;;;26.60;82.30;;;;;;6156300;23;20399;-94
2021/07/08 11:19:44;;;;;;;3.80;2.70;;;26.60;82.30;;;;;;6156705;23;20453;-94
2021/07/08 11:22:24;;;;;;;3.87;2.30;;;26.60;82.30;;;;;;6156630;23;20415;-94
2021/07/08 11:24:54;;;;;;;5.37;2.53;;;26.60;82.30;;;;;;6156880;23;20411;-94
2021/07/08 11:27:33;;;;;;;6.70;2.30;;;26.60;82.30;;;;;;6156934;23;20408;-93
2021/07/08 11:30:03;;;;;;;5.60;3.40;;;26.60;82.20;;;;;;6156112;23;20490;-93
2021/07/08 11:32:37;;;;;;;5.67;2.50;;;26.60;82.30;;;;;;6156628;23;20411;-94
2021/07/08 11:35:07;;;;;;;5.50;3.10;;;26.60;82.30;;;;;;6159191;23;20446;-94
2021/07/08 11:37:39;;;;;;;3.40;2.70;;;26.60;82.30;;;;;;6158295;23;20467;-94
2021/07/08 11:40:14;;;;;;;2.80;2.30;;;26.60;82.30;;;;;;6158213;23;20907;-94
2021/07/08 11:42:43;;;;;;;4.23;2.27;;;26.60;83.20;;;;;;6158381;23;20458;-94
2021/07/08 11:45:12;;;;;;;3.73;2.63;;;26.60;82.30;;;;;;6158430;23;20400;-94
2021/07/08 11:47:43;;;;;;;4.50;2.80;;;26.60;82.30;;;;;;6158262;23;20436;-93
2021/07/08 11:50:22;;;;;;;4.40;2.60;;;26.60;82.30;;;;;;6158288;23;20890;-93
2021/07/08 11:53:05;;;;;;;3.43;2.60;;;26.60;82.30;;;;;;6158213;23;20419;-94
2021/07/08 11:55:34;;;;;;;3.10;2.23;;;26.60;82.40;;;;;;6158804;23;20444;-94
2021/07/08 12:01:39;;;;;;;3.10;1.80;;;26.60;82.50;;;;;;6162380;23;20453;-95
2021/07/08 15:25:36;;;;;;;1.67;1.57;;;26.50;83.40;;;;;;6045425;23;20418;-96
2021/07/08 15:36:55;;;;;;;;;;;;;;;;;;;;;
2021/07/08 15:56:04;;;;;;;3.97;2.00;;;26.50;83.60;;;;;;6159280;23;20367;-94
2021/07/08 15:58:34;;;;;;;2.63;1.80;;;26.40;83.60;;;;;;6130841;23;20429;-95
2021/07/08 16:07:47;;;;;;;2.40;2.17;;;26.50;83.50;;;;;;5874978;24;20401;-96
2021/07/08 16:10:14;;;;;;;2.43;2.10;;;26.50;83.50;;;;;;6010225;23;20435;-96
2021/07/08 16:12:43;;;;;;;2.27;2.07;;;26.50;84.00;;;;;;6167051;23;20693;-96
2021/07/08 16:15:10;;;;;;;2.00;1.90;;;26.50;83.80;;;;;;6189690;23;20486;-96
2021/07/08 16:17:40;;;;;;;2.43;2.23;;;26.50;83.80;;;;;;6190077;23;20443;-96
2021/07/08 16:23:29;;;;;;;2.60;2.07;;;26.50;83.60;;;;;;6192092;23;20363;-96
2021/07/08 16:25:56;;;;;;;3.47;2.20;;;26.30;83.60;;;;;;6191956;23;20458;-95
2021/07/08 16:40:24;;;;;;;1.63;1.53;;;26.40;83.70;;;;;;6168449;23;20450;-96
2021/07/08 16:46:10;;;;;;;2.30;2.20;;;26.40;83.80;;;;;;6189232;23;20430;-96
2021/07/08 16:48:57;;;;;;;3.03;1.90;;;26.50;84.00;;;;;;6188237;23;20442;-96
2021/07/08 16:51:29;;;;;;;2.13;1.93;;;26.60;84.10;;;;;;6189816;23;20480;-96
2021/07/08 16:54:06;;;;;;;2.20;2.00;;;26.50;84.10;;;;;;6189211;23;20407;-96
2021/07/08 16:56:46;;;;;;;1.80;1.70;;;26.50;84.10;;;;;;6188946;23;20453;-96
2021/07/08 16:59:23;;;;;;;1.97;1.87;;;26.50;84.00;;;;;;6188771;23;20449;-96
2021/07/08 17:16:52;;;;;;;3.93;2.43;;;26.50;84.20;;;;;;6191942;23;20379;-96
2021/07/08 17:50:44;;;;;;;2.40;2.20;;;26.40;84.30;;;;;;6190530;23;20861;-96
2021/07/08 17:53:11;;;;;;;2.40;2.20;;;26.40;84.50;;;;;;6187564;23;20469;-96
2021/07/08 17:55:41;;;;;;;2.10;1.90;;;26.40;84.50;;;;;;6162790;23;20426;-96
2021/07/08 17:58:08;;;;;;;2.17;1.77;;;26.40;84.50;;;;;;6187483;23;20894;-96
2021/07/08 18:00:37;;;;;;;2.80;1.60;;;26.40;84.30;;;;;;6187320;23;20879;-96
2021/07/08 18:03:05;;;;;;;2.40;1.80;;;26.50;84.90;;;;;;6187861;23;20493;-96
2021/07/08 18:08:17;;;;;;;2.17;1.73;;;26.50;84.40;;;;;;6187049;23;20426;-96
2021/07/08 18:10:56;;;;;;;2.10;1.80;;;26.30;84.20;;;;;;6189030;23;20403;-96
2021/07/08 18:13:28;;;;;;;5.83;2.07;;;26.50;84.30;;;;;;6189002;23;20410;-96
2021/07/08 18:15:59;;;;;;;2.53;2.20;;;26.50;84.30;;;;;;6187802;23;20414;-95
2021/07/08 18:18:34;;;;;;;2.87;1.60;;;26.50;84.30;;;;;;6187915;23;20395;-94
2021/07/08 18:21:06;;;;;;;2.37;1.87;;;26.60;84.40;;;;;;6188154;23;20402;-95
2021/07/08 18:23:33;;;;;;;2.10;1.67;;;26.60;84.30;;;;;;6186842;23;20404;-95